sensor_id;sensor_type;location;lat;lon;timestamp;P1;durP1;ratioP1;P2;durP2;ratioP2
20824;SDS011;10573;50.936;6.978;2023-10-19T00:01:57;10.60;;;7.00;;
20824;SDS011;10573;50.936;6.978;2023-10-19T00:04:25;8.97;;;6.97;;
20824;SDS011;10573;50.936;6.978;2023-10-19T00:06:52;9.73;;;7.17;;
20824;SDS011;10573;50.936;6.978;2023-10-19T00:09:18;9.07;;;7.20;;
20824;SDS011;10573;50.936;6.978;2023-10-19T00:11:45;9.68;;;7.60;;
20824;SDS011;10573;50.936;6.978;2023-10-19T00:14:12;9.07;;;7.67;;
20824;SDS011;10573;50.936;6.978;2023-10-19T00:16:43;10.40;;;7.28;;
20824;SDS011;10573;50.936;6.978;2023-10-19T00:19:16;9.23;;;7.60;;
20824;SDS011;10573;50.936;6.978;2023-10-19T00:21:44;10.53;;;7.77;;
20824;SDS011;10573;50.936;6.978;2023-10-19T00:24:19;8.82;;;7.85;;
20824;SDS011;10573;50.936;6.978;2023-10-19T00:26:47;8.63;;;7.72;;
20824;SDS011;10573;50.936;6.978;2023-10-19T00:29:20;10.35;;;7.95;;
20824;SDS011;10573;50.936;6.978;2023-10-19T00:32:05;10.50;;;8.02;;
20824;SDS011;10573;50.936;6.978;2023-10-19T00:34:37;9.85;;;8.13;;
20824;SDS011;10573;50.936;6.978;2023-10-19T00:37:03;10.53;;;7.57;;
20824;SDS011;10573;50.936;6.978;2023-10-19T00:39:34;11.70;;;8.07;;
20824;SDS011;10573;50.936;6.978;2023-10-19T00:42:08;8.73;;;7.82;;
20824;SDS011;10573;50.936;6.978;2023-10-19T00:44:34;10.90;;;7.73;;
20824;SDS011;10573;50.936;6.978;2023-10-19T00:47:14;9.02;;;8.10;;
20824;SDS011;10573;50.936;6.978;2023-10-19T00:49:43;9.65;;;7.63;;
20824;SDS011;10573;50.936;6.978;2023-10-19T00:52:10;9.80;;;7.65;;
20824;SDS011;10573;50.936;6.978;2023-10-19T00:54:37;11.95;;;7.65;;
20824;SDS011;10573;50.936;6.978;2023-10-19T00:57:16;10.35;;;8.55;;
20824;SDS011;10573;50.936;6.978;2023-10-19T01:00:01;11.15;;;7.82;;
20824;SDS011;10573;50.936;6.978;2023-10-19T01:02:53;9.05;;;8.10;;
20824;SDS011;10573;50.936;6.978;2023-10-19T01:05:24;9.70;;;8.70;;
20824;SDS011;10573;50.936;6.978;2023-10-19T01:07:57;10.00;;;8.20;;
20824;SDS011;10573;50.936;6.978;2023-10-19T01:10:22;10.13;;;7.82;;
20824;SDS011;10573;50.936;6.978;2023-10-19T01:12:48;9.40;;;8.40;;
20824;SDS011;10573;50.936;6.978;2023-10-19T01:15:19;10.63;;;7.72;;
20824;SDS011;10573;50.936;6.978;2023-10-19T01:17:57;9.88;;;8.07;;
20824;SDS011;10573;50.936;6.978;2023-10-19T01:20:25;10.57;;;8.10;;
20824;SDS011;10573;50.936;6.978;2023-10-19T01:22:55;9.77;;;8.23;;
20824;SDS011;10573;50.936;6.978;2023-10-19T01:25:49;11.45;;;8.35;;
20824;SDS011;10573;50.936;6.978;2023-10-19T01:28:16;10.30;;;8.17;;
20824;SDS011;10573;50.936;6.978;2023-10-19T01:30:42;9.57;;;8.10;;
20824;SDS011;10573;50.936;6.978;2023-10-19T01:33:16;10.40;;;8.50;;
20824;SDS011;10573;50.936;6.978;2023-10-19T01:35:45;9.07;;;8.15;;
20824;SDS011;10573;50.936;6.978;2023-10-19T01:38:30;10.68;;;8.38;;
20824;SDS011;10573;50.936;6.978;2023-10-19T01:40:58;10.02;;;8.48;;
20824;SDS011;10573;50.936;6.978;2023-10-19T01:43:31;10.63;;;8.63;;
20824;SDS011;10573;50.936;6.978;2023-10-19T01:45:59;10.17;;;8.37;;
20824;SDS011;10573;50.936;6.978;2023-10-19T01:48:37;9.77;;;7.80;;
20824;SDS011;10573;50.936;6.978;2023-10-19T01:51:07;9.38;;;7.97;;
20824;SDS011;10573;50.936;6.978;2023-10-19T01:53:38;9.15;;;7.97;;
20824;SDS011;10573;50.936;6.978;2023-10-19T01:56:05;9.18;;;7.82;;
20824;SDS011;10573;50.936;6.978;2023-10-19T01:58:34;8.18;;;7.38;;
20824;SDS011;10573;50.936;6.978;2023-10-19T02:01:04;9.02;;;7.70;;
20824;SDS011;10573;50.936;6.978;2023-10-19T02:03:41;9.25;;;8.23;;
20824;SDS011;10573;50.936;6.978;2023-10-19T02:06:11;8.75;;;7.85;;
20824;SDS011;10573;50.936;6.978;2023-10-19T02:08:48;9.77;;;8.02;;
20824;SDS011;10573;50.936;6.978;2023-10-19T02:11:51;9.93;;;7.88;;
20824;SDS011;10573;50.936;6.978;2023-10-19T02:14:18;9.30;;;7.57;;
20824;SDS011;10573;50.936;6.978;2023-10-19T02:16:53;8.65;;;7.57;;
20824;SDS011;10573;50.936;6.978;2023-10-19T02:19:25;11.90;;;8.23;;
20824;SDS011;10573;50.936;6.978;2023-10-19T02:21:52;8.30;;;7.47;;
20824;SDS011;10573;50.936;6.978;2023-10-19T02:24:20;8.65;;;7.47;;
20824;SDS011;10573;50.936;6.978;2023-10-19T02:26:47;9.30;;;7.73;;
20824;SDS011;10573;50.936;6.978;2023-10-19T02:29:16;8.45;;;7.65;;
20824;SDS011;10573;50.936;6.978;2023-10-19T02:31:43;8.73;;;7.87;;
20824;SDS011;10573;50.936;6.978;2023-10-19T02:34:09;8.73;;;7.77;;
20824;SDS011;10573;50.936;6.978;2023-10-19T02:36:37;8.73;;;7.60;;
20824;SDS011;10573;50.936;6.978;2023-10-19T02:39:06;8.73;;;7.85;;
20824;SDS011;10573;50.936;6.978;2023-10-19T02:41:37;10.05;;;8.32;;
20824;SDS011;10573;50.936;6.978;2023-10-19T02:44:07;9.75;;;7.72;;
20824;SDS011;10573;50.936;6.978;2023-10-19T02:46:51;9.85;;;8.00;;
20824;SDS011;10573;50.936;6.978;2023-10-19T02:49:23;10.25;;;7.88;;
20824;SDS011;10573;50.936;6.978;2023-10-19T02:51:51;8.80;;;7.90;;
20824;SDS011;10573;50.936;6.978;2023-10-19T02:54:19;9.38;;;7.30;;
20824;SDS011;10573;50.936;6.978;2023-10-19T02:56:50;8.35;;;7.50;;
20824;SDS011;10573;50.936;6.978;2023-10-19T02:59:18;9.48;;;7.55;;
20824;SDS011;10573;50.936;6.978;2023-10-19T03:01:48;7.95;;;7.15;;
20824;SDS011;10573;50.936;6.978;2023-10-19T03:04:15;10.73;;;7.63;;
20824;SDS011;10573;50.936;6.978;2023-10-19T03:06:41;9.35;;;7.03;;
20824;SDS011;10573;50.936;6.978;2023-10-19T03:09:07;8.93;;;7.50;;
20824;SDS011;10573;50.936;6.978;2023-10-19T03:11:41;8.13;;;6.93;;
20824;SDS011;10573;50.936;6.978;2023-10-19T03:14:10;9.10;;;7.30;;
20824;SDS011;10573;50.936;6.978;2023-10-19T03:16:37;8.82;;;7.22;;
20824;SDS011;10573;50.936;6.978;2023-10-19T03:19:06;11.00;;;7.33;;
20824;SDS011;10573;50.936;6.978;2023-10-19T03:21:32;7.57;;;6.30;;
20824;SDS011;10573;50.936;6.978;2023-10-19T03:24:07;7.80;;;7.00;;
20824;SDS011;10573;50.936;6.978;2023-10-19T03:26:54;7.32;;;6.60;;
20824;SDS011;10573;50.936;6.978;2023-10-19T03:29:19;7.10;;;6.40;;
20824;SDS011;10573;50.936;6.978;2023-10-19T03:31:53;7.60;;;6.80;;
20824;SDS011;10573;50.936;6.978;2023-10-19T03:34:18;7.13;;;6.43;;
20824;SDS011;10573;50.936;6.978;2023-10-19T03:36:44;7.97;;;7.18;;
20824;SDS011;10573;50.936;6.978;2023-10-19T03:39:10;7.70;;;6.20;;
20824;SDS011;10573;50.936;6.978;2023-10-19T03:41:42;7.32;;;6.53;;
20824;SDS011;10573;50.936;6.978;2023-10-19T03:44:09;8.52;;;6.70;;
20824;SDS011;10573;50.936;6.978;2023-10-19T03:46:42;8.75;;;6.35;;
20824;SDS011;10573;50.936;6.978;2023-10-19T03:49:18;7.93;;;6.35;;
20824;SDS011;10573;50.936;6.978;2023-10-19T03:51:45;8.27;;;6.45;;
20824;SDS011;10573;50.936;6.978;2023-10-19T03:54:43;6.93;;;6.20;;
20824;SDS011;10573;50.936;6.978;2023-10-19T03:57:10;7.33;;;6.30;;
20824;SDS011;10573;50.936;6.978;2023-10-19T03:59:40;8.40;;;6.50;;
20824;SDS011;10573;50.936;6.978;2023-10-19T04:02:09;8.77;;;6.28;;
20824;SDS011;10573;50.936;6.978;2023-10-19T04:04:39;9.00;;;6.82;;
20824;SDS011;10573;50.936;6.978;2023-10-19T04:07:08;6.63;;;5.82;;
20824;SDS011;10573;50.936;6.978;2023-10-19T04:09:45;7.38;;;6.07;;
20824;SDS011;10573;50.936;6.978;2023-10-19T04:12:22;7.90;;;5.63;;
20824;SDS011;10573;50.936;6.978;2023-10-19T04:14:54;6.80;;;6.10;;
20824;SDS011;10573;50.936;6.978;2023-10-19T04:17:20;7.28;;;6.50;;
20824;SDS011;10573;50.936;6.978;2023-10-19T04:19:46;9.20;;;6.20;;
20824;SDS011;10573;50.936;6.978;2023-10-19T04:22:14;7.35;;;6.10;;
20824;SDS011;10573;50.936;6.978;2023-10-19T04:24:47;7.75;;;6.28;;
20824;SDS011;10573;50.936;6.978;2023-10-19T04:27:13;7.85;;;6.22;;
20824;SDS011;10573;50.936;6.978;2023-10-19T04:29:39;7.53;;;6.72;;
20824;SDS011;10573;50.936;6.978;2023-10-19T04:32:08;7.38;;;6.32;;
20824;SDS011;10573;50.936;6.978;2023-10-19T04:34:34;7.63;;;6.68;;
20824;SDS011;10573;50.936;6.978;2023-10-19T04:37:01;7.83;;;6.10;;
20824;SDS011;10573;50.936;6.978;2023-10-19T04:39:28;7.22;;;6.30;;
20824;SDS011;10573;50.936;6.978;2023-10-19T04:41:55;9.10;;;6.75;;
20824;SDS011;10573;50.936;6.978;2023-10-19T04:44:21;8.30;;;6.13;;
20824;SDS011;10573;50.936;6.978;2023-10-19T04:46:47;7.63;;;6.30;;
20824;SDS011;10573;50.936;6.978;2023-10-19T04:49:13;7.17;;;6.20;;
20824;SDS011;10573;50.936;6.978;2023-10-19T04:51:38;8.53;;;6.50;;
20824;SDS011;10573;50.936;6.978;2023-10-19T04:54:04;7.37;;;6.00;;
20824;SDS011;10573;50.936;6.978;2023-10-19T04:56:31;6.93;;;6.22;;
20824;SDS011;10573;50.936;6.978;2023-10-19T04:58:57;8.90;;;6.25;;
20824;SDS011;10573;50.936;6.978;2023-10-19T05:01:22;9.83;;;6.10;;
20824;SDS011;10573;50.936;6.978;2023-10-19T05:03:48;7.23;;;5.93;;
20824;SDS011;10573;50.936;6.978;2023-10-19T05:06:13;7.73;;;6.33;;
20824;SDS011;10573;50.936;6.978;2023-10-19T05:08:38;7.73;;;6.17;;
20824;SDS011;10573;50.936;6.978;2023-10-19T05:11:04;8.07;;;5.90;;
20824;SDS011;10573;50.936;6.978;2023-10-19T05:13:30;8.03;;;6.20;;
20824;SDS011;10573;50.936;6.978;2023-10-19T05:15:56;7.05;;;6.13;;
20824;SDS011;10573;50.936;6.978;2023-10-19T05:18:23;9.07;;;6.20;;
20824;SDS011;10573;50.936;6.978;2023-10-19T05:20:50;8.73;;;6.60;;
20824;SDS011;10573;50.936;6.978;2023-10-19T05:23:20;9.57;;;7.13;;
20824;SDS011;10573;50.936;6.978;2023-10-19T05:25:50;8.88;;;6.38;;
20824;SDS011;10573;50.936;6.978;2023-10-19T05:28:17;10.43;;;6.00;;
20824;SDS011;10573;50.936;6.978;2023-10-19T05:30:44;9.98;;;6.78;;
20824;SDS011;10573;50.936;6.978;2023-10-19T05:33:09;8.13;;;6.93;;
20824;SDS011;10573;50.936;6.978;2023-10-19T05:35:35;8.70;;;6.93;;
20824;SDS011;10573;50.936;6.978;2023-10-19T05:38:05;8.45;;;6.97;;
20824;SDS011;10573;50.936;6.978;2023-10-19T05:40:31;8.45;;;6.80;;
20824;SDS011;10573;50.936;6.978;2023-10-19T05:42:57;8.77;;;7.20;;
20824;SDS011;10573;50.936;6.978;2023-10-19T05:45:23;8.85;;;7.20;;
20824;SDS011;10573;50.936;6.978;2023-10-19T05:47:49;7.95;;;7.05;;
20824;SDS011;10573;50.936;6.978;2023-10-19T05:50:15;9.30;;;7.67;;
20824;SDS011;10573;50.936;6.978;2023-10-19T05:52:42;11.95;;;8.10;;
20824;SDS011;10573;50.936;6.978;2023-10-19T05:55:09;11.90;;;7.28;;
20824;SDS011;10573;50.936;6.978;2023-10-19T05:57:36;11.40;;;8.98;;
20824;SDS011;10573;50.936;6.978;2023-10-19T06:00:06;8.93;;;7.00;;
20824;SDS011;10573;50.936;6.978;2023-10-19T06:02:41;10.00;;;7.45;;
20824;SDS011;10573;50.936;6.978;2023-10-19T06:05:09;9.50;;;7.68;;
20824;SDS011;10573;50.936;6.978;2023-10-19T06:07:34;11.00;;;7.73;;
20824;SDS011;10573;50.936;6.978;2023-10-19T06:10:00;8.93;;;7.75;;
20824;SDS011;10573;50.936;6.978;2023-10-19T06:12:29;10.23;;;8.20;;
20824;SDS011;10573;50.936;6.978;2023-10-19T06:14:55;10.87;;;8.53;;
20824;SDS011;10573;50.936;6.978;2023-10-19T06:17:20;13.30;;;8.50;;
20824;SDS011;10573;50.936;6.978;2023-10-19T06:19:46;12.93;;;8.40;;
20824;SDS011;10573;50.936;6.978;2023-10-19T06:22:11;10.37;;;8.27;;
20824;SDS011;10573;50.936;6.978;2023-10-19T06:24:37;10.55;;;8.20;;
20824;SDS011;10573;50.936;6.978;2023-10-19T06:27:02;10.30;;;7.53;;
20824;SDS011;10573;50.936;6.978;2023-10-19T06:29:29;12.48;;;7.60;;
20824;SDS011;10573;50.936;6.978;2023-10-19T06:31:54;10.43;;;7.67;;
20824;SDS011;10573;50.936;6.978;2023-10-19T06:34:20;10.02;;;7.65;;
20824;SDS011;10573;50.936;6.978;2023-10-19T06:36:45;10.47;;;7.37;;
20824;SDS011;10573;50.936;6.978;2023-10-19T06:39:11;14.40;;;8.10;;
20824;SDS011;10573;50.936;6.978;2023-10-19T06:41:38;8.40;;;7.22;;
20824;SDS011;10573;50.936;6.978;2023-10-19T06:44:04;12.43;;;7.50;;
20824;SDS011;10573;50.936;6.978;2023-10-19T06:46:31;11.02;;;8.13;;
20824;SDS011;10573;50.936;6.978;2023-10-19T06:48:56;12.52;;;7.68;;
20824;SDS011;10573;50.936;6.978;2023-10-19T06:51:25;10.10;;;8.10;;
20824;SDS011;10573;50.936;6.978;2023-10-19T06:53:54;11.25;;;7.90;;
20824;SDS011;10573;50.936;6.978;2023-10-19T06:56:20;11.50;;;7.93;;
20824;SDS011;10573;50.936;6.978;2023-10-19T06:58:46;10.40;;;8.27;;
20824;SDS011;10573;50.936;6.978;2023-10-19T07:01:11;8.73;;;7.67;;
20824;SDS011;10573;50.936;6.978;2023-10-19T07:03:38;10.60;;;8.52;;
20824;SDS011;10573;50.936;6.978;2023-10-19T07:06:03;14.30;;;8.20;;
20824;SDS011;10573;50.936;6.978;2023-10-19T07:08:29;12.52;;;8.43;;
20824;SDS011;10573;50.936;6.978;2023-10-19T07:10:55;10.95;;;8.05;;
20824;SDS011;10573;50.936;6.978;2023-10-19T07:13:20;11.15;;;8.25;;
20824;SDS011;10573;50.936;6.978;2023-10-19T07:15:47;11.32;;;8.30;;
20824;SDS011;10573;50.936;6.978;2023-10-19T07:18:14;11.75;;;8.07;;
20824;SDS011;10573;50.936;6.978;2023-10-19T07:20:40;12.67;;;8.00;;
20824;SDS011;10573;50.936;6.978;2023-10-19T07:23:07;9.55;;;8.00;;
20824;SDS011;10573;50.936;6.978;2023-10-19T07:25:51;11.23;;;8.10;;
20824;SDS011;10573;50.936;6.978;2023-10-19T07:28:19;11.82;;;9.10;;
20824;SDS011;10573;50.936;6.978;2023-10-19T07:30:46;13.02;;;8.73;;
20824;SDS011;10573;50.936;6.978;2023-10-19T07:33:13;11.13;;;8.82;;
20824;SDS011;10573;50.936;6.978;2023-10-19T07:35:42;13.07;;;8.70;;
20824;SDS011;10573;50.936;6.978;2023-10-19T07:38:12;9.88;;;8.70;;
20824;SDS011;10573;50.936;6.978;2023-10-19T07:40:38;10.80;;;8.48;;
20824;SDS011;10573;50.936;6.978;2023-10-19T07:43:03;11.18;;;9.10;;
20824;SDS011;10573;50.936;6.978;2023-10-19T07:45:29;11.00;;;8.20;;
20824;SDS011;10573;50.936;6.978;2023-10-19T07:47:56;11.52;;;8.80;;
20824;SDS011;10573;50.936;6.978;2023-10-19T07:50:22;11.13;;;8.38;;
20824;SDS011;10573;50.936;6.978;2023-10-19T07:52:49;12.10;;;8.37;;
20824;SDS011;10573;50.936;6.978;2023-10-19T07:55:16;12.27;;;7.93;;
20824;SDS011;10573;50.936;6.978;2023-10-19T07:57:43;14.50;;;7.75;;
20824;SDS011;10573;50.936;6.978;2023-10-19T08:00:09;12.23;;;7.77;;
20824;SDS011;10573;50.936;6.978;2023-10-19T08:02:40;11.23;;;7.80;;
20824;SDS011;10573;50.936;6.978;2023-10-19T08:05:07;10.35;;;6.85;;
20824;SDS011;10573;50.936;6.978;2023-10-19T08:07:33;8.40;;;6.80;;
20824;SDS011;10573;50.936;6.978;2023-10-19T08:09:59;13.07;;;7.00;;
20824;SDS011;10573;50.936;6.978;2023-10-19T08:12:26;9.10;;;6.47;;
20824;SDS011;10573;50.936;6.978;2023-10-19T08:14:54;9.65;;;6.93;;
20824;SDS011;10573;50.936;6.978;2023-10-19T08:17:20;9.63;;;6.80;;
20824;SDS011;10573;50.936;6.978;2023-10-19T08:19:46;9.60;;;6.50;;
20824;SDS011;10573;50.936;6.978;2023-10-19T08:22:11;8.85;;;6.72;;
20824;SDS011;10573;50.936;6.978;2023-10-19T08:24:39;9.50;;;6.22;;
20824;SDS011;10573;50.936;6.978;2023-10-19T08:27:08;7.95;;;5.82;;
20824;SDS011;10573;50.936;6.978;2023-10-19T08:29:36;8.93;;;5.97;;
20824;SDS011;10573;50.936;6.978;2023-10-19T08:32:02;8.73;;;5.47;;
20824;SDS011;10573;50.936;6.978;2023-10-19T08:34:27;8.95;;;5.50;;
20824;SDS011;10573;50.936;6.978;2023-10-19T08:36:54;6.77;;;5.27;;
20824;SDS011;10573;50.936;6.978;2023-10-19T08:39:20;9.30;;;5.30;;
20824;SDS011;10573;50.936;6.978;2023-10-19T08:41:46;7.93;;;5.10;;
20824;SDS011;10573;50.936;6.978;2023-10-19T08:44:14;7.17;;;4.63;;
20824;SDS011;10573;50.936;6.978;2023-10-19T08:46:43;7.65;;;4.10;;
20824;SDS011;10573;50.936;6.978;2023-10-19T08:49:13;5.00;;;3.55;;
20824;SDS011;10573;50.936;6.978;2023-10-19T08:51:43;9.27;;;4.28;;
20824;SDS011;10573;50.936;6.978;2023-10-19T08:54:11;8.02;;;3.65;;
20824;SDS011;10573;50.936;6.978;2023-10-19T08:56:38;9.00;;;4.00;;
20824;SDS011;10573;50.936;6.978;2023-10-19T08:59:04;7.65;;;3.67;;
20824;SDS011;10573;50.936;6.978;2023-10-19T09:01:31;7.25;;;3.50;;
20824;SDS011;10573;50.936;6.978;2023-10-19T09:03:57;8.48;;;3.63;;
20824;SDS011;10573;50.936;6.978;2023-10-19T09:06:24;9.18;;;3.65;;
20824;SDS011;10573;50.936;6.978;2023-10-19T09:08:50;10.50;;;3.50;;
20824;SDS011;10573;50.936;6.978;2023-10-19T09:11:15;7.13;;;3.30;;
20824;SDS011;10573;50.936;6.978;2023-10-19T09:13:47;6.65;;;2.83;;
20824;SDS011;10573;50.936;6.978;2023-10-19T09:16:14;9.35;;;3.25;;
20824;SDS011;10573;50.936;6.978;2023-10-19T09:18:40;6.50;;;2.80;;
20824;SDS011;10573;50.936;6.978;2023-10-19T09:21:06;7.90;;;2.95;;
20824;SDS011;10573;50.936;6.978;2023-10-19T09:23:33;6.70;;;3.08;;
20824;SDS011;10573;50.936;6.978;2023-10-19T09:26:00;7.47;;;3.03;;
20824;SDS011;10573;50.936;6.978;2023-10-19T09:28:30;8.45;;;3.05;;
20824;SDS011;10573;50.936;6.978;2023-10-19T09:30:59;7.63;;;2.70;;
20824;SDS011;10573;50.936;6.978;2023-10-19T09:33:25;7.63;;;2.55;;
20824;SDS011;10573;50.936;6.978;2023-10-19T09:35:52;10.10;;;2.50;;
20824;SDS011;10573;50.936;6.978;2023-10-19T09:38:22;8.02;;;2.40;;
20824;SDS011;10573;50.936;6.978;2023-10-19T09:40:50;9.50;;;2.83;;
20824;SDS011;10573;50.936;6.978;2023-10-19T09:43:21;9.45;;;2.10;;
20824;SDS011;10573;50.936;6.978;2023-10-19T09:45:54;7.50;;;2.20;;
20824;SDS011;10573;50.936;6.978;2023-10-19T09:48:25;6.00;;;1.83;;
20824;SDS011;10573;50.936;6.978;2023-10-19T09:50:53;4.53;;;1.80;;
20824;SDS011;10573;50.936;6.978;2023-10-19T09:53:27;10.03;;;2.13;;
20824;SDS011;10573;50.936;6.978;2023-10-19T09:55:54;6.63;;;1.83;;
20824;SDS011;10573;50.936;6.978;2023-10-19T09:58:24;7.70;;;2.10;;
20824;SDS011;10573;50.936;6.978;2023-10-19T10:00:54;7.75;;;1.95;;
20824;SDS011;10573;50.936;6.978;2023-10-19T10:06:10;8.47;;;1.77;;
20824;SDS011;10573;50.936;6.978;2023-10-19T10:08:38;6.72;;;2.00;;
20824;SDS011;10573;50.936;6.978;2023-10-19T10:11:17;4.97;;;1.50;;
20824;SDS011;10573;50.936;6.978;2023-10-19T10:13:43;7.55;;;1.90;;
20824;SDS011;10573;50.936;6.978;2023-10-19T10:16:11;6.07;;;1.92;;
20824;SDS011;10573;50.936;6.978;2023-10-19T10:18:40;7.50;;;2.83;;
20824;SDS011;10573;50.936;6.978;2023-10-19T10:23:43;8.10;;;2.33;;
20824;SDS011;10573;50.936;6.978;2023-10-19T10:26:17;4.50;;;1.58;;
20824;SDS011;10573;50.936;6.978;2023-10-19T10:28:46;4.53;;;1.90;;
20824;SDS011;10573;50.936;6.978;2023-10-19T10:31:16;7.72;;;1.80;;
20824;SDS011;10573;50.936;6.978;2023-10-19T10:33:49;9.70;;;2.03;;
20824;SDS011;10573;50.936;6.978;2023-10-19T10:36:19;7.00;;;1.92;;
20824;SDS011;10573;50.936;6.978;2023-10-19T10:38:50;8.05;;;1.90;;
20824;SDS011;10573;50.936;6.978;2023-10-19T10:41:19;5.80;;;1.70;;
20824;SDS011;10573;50.936;6.978;2023-10-19T10:43:55;7.40;;;1.40;;
20824;SDS011;10573;50.936;6.978;2023-10-19T10:46:22;6.15;;;1.52;;
20824;SDS011;10573;50.936;6.978;2023-10-19T10:48:49;6.53;;;1.90;;
20824;SDS011;10573;50.936;6.978;2023-10-19T10:51:15;7.07;;;1.80;;
20824;SDS011;10573;50.936;6.978;2023-10-19T10:53:48;9.43;;;1.90;;
20824;SDS011;10573;50.936;6.978;2023-10-19T10:56:18;7.60;;;1.95;;
20824;SDS011;10573;50.936;6.978;2023-10-19T10:58:45;8.77;;;1.83;;
20824;SDS011;10573;50.936;6.978;2023-10-19T11:01:10;6.22;;;1.80;;
20824;SDS011;10573;50.936;6.978;2023-10-19T11:03:36;7.47;;;1.63;;
20824;SDS011;10573;50.936;6.978;2023-10-19T11:06:06;8.20;;;1.80;;
20824;SDS011;10573;50.936;6.978;2023-10-19T11:08:36;8.93;;;1.90;;
20824;SDS011;10573;50.936;6.978;2023-10-19T11:11:07;6.57;;;1.90;;
20824;SDS011;10573;50.936;6.978;2023-10-19T11:13:36;10.00;;;2.33;;
20824;SDS011;10573;50.936;6.978;2023-10-19T11:16:03;7.72;;;2.47;;
20824;SDS011;10573;50.936;6.978;2023-10-19T11:18:37;9.70;;;1.60;;
20824;SDS011;10573;50.936;6.978;2023-10-19T11:21:13;5.80;;;1.73;;
20824;SDS011;10573;50.936;6.978;2023-10-19T11:23:44;10.65;;;1.83;;
20824;SDS011;10573;50.936;6.978;2023-10-19T11:26:12;7.32;;;1.83;;
20824;SDS011;10573;50.936;6.978;2023-10-19T11:28:39;7.78;;;1.65;;
20824;SDS011;10573;50.936;6.978;2023-10-19T11:31:13;6.82;;;1.90;;
20824;SDS011;10573;50.936;6.978;2023-10-19T11:33:40;5.82;;;2.20;;
20824;SDS011;10573;50.936;6.978;2023-10-19T11:36:07;7.25;;;2.00;;
20824;SDS011;10573;50.936;6.978;2023-10-19T11:38:33;7.17;;;1.90;;
20824;SDS011;10573;50.936;6.978;2023-10-19T11:40:58;6.03;;;1.83;;
20824;SDS011;10573;50.936;6.978;2023-10-19T11:43:24;7.73;;;1.87;;
20824;SDS011;10573;50.936;6.978;2023-10-19T11:45:49;4.28;;;1.50;;
20824;SDS011;10573;50.936;6.978;2023-10-19T11:48:15;7.33;;;1.87;;
20824;SDS011;10573;50.936;6.978;2023-10-19T11:50:40;6.40;;;1.70;;
20824;SDS011;10573;50.936;6.978;2023-10-19T11:53:06;8.43;;;1.63;;
20824;SDS011;10573;50.936;6.978;2023-10-19T11:55:31;5.40;;;1.63;;
20824;SDS011;10573;50.936;6.978;2023-10-19T11:57:57;6.22;;;1.65;;
20824;SDS011;10573;50.936;6.978;2023-10-19T12:00:22;7.97;;;2.07;;
20824;SDS011;10573;50.936;6.978;2023-10-19T12:02:49;9.63;;;2.67;;
20824;SDS011;10573;50.936;6.978;2023-10-19T12:05:15;6.33;;;1.93;;
20824;SDS011;10573;50.936;6.978;2023-10-19T12:07:40;6.53;;;1.80;;
20824;SDS011;10573;50.936;6.978;2023-10-19T12:10:09;7.73;;;1.53;;
20824;SDS011;10573;50.936;6.978;2023-10-19T12:12:36;6.20;;;1.67;;
20824;SDS011;10573;50.936;6.978;2023-10-19T12:15:02;7.90;;;2.20;;
20824;SDS011;10573;50.936;6.978;2023-10-19T12:17:30;8.52;;;1.90;;
20824;SDS011;10573;50.936;6.978;2023-10-19T12:19:56;8.20;;;2.00;;
20824;SDS011;10573;50.936;6.978;2023-10-19T12:22:21;6.57;;;1.65;;
20824;SDS011;10573;50.936;6.978;2023-10-19T12:24:47;5.47;;;1.63;;
20824;SDS011;10573;50.936;6.978;2023-10-19T12:27:13;7.35;;;1.70;;
20824;SDS011;10573;50.936;6.978;2023-10-19T12:29:39;5.75;;;1.80;;
20824;SDS011;10573;50.936;6.978;2023-10-19T12:32:05;10.07;;;1.73;;
20824;SDS011;10573;50.936;6.978;2023-10-19T12:34:31;8.77;;;1.70;;
20824;SDS011;10573;50.936;6.978;2023-10-19T12:36:58;12.57;;;2.40;;
20824;SDS011;10573;50.936;6.978;2023-10-19T12:39:24;5.85;;;1.80;;
20824;SDS011;10573;50.936;6.978;2023-10-19T12:42:08;8.57;;;1.90;;
20824;SDS011;10573;50.936;6.978;2023-10-19T12:44:34;8.07;;;2.20;;
20824;SDS011;10573;50.936;6.978;2023-10-19T12:47:04;7.63;;;1.97;;
20824;SDS011;10573;50.936;6.978;2023-10-19T12:49:35;6.07;;;1.63;;
20824;SDS011;10573;50.936;6.978;2023-10-19T12:52:00;5.82;;;1.77;;
20824;SDS011;10573;50.936;6.978;2023-10-19T12:54:28;6.93;;;1.73;;
20824;SDS011;10573;50.936;6.978;2023-10-19T12:56:54;9.00;;;1.93;;
20824;SDS011;10573;50.936;6.978;2023-10-19T12:59:20;5.07;;;1.57;;
20824;SDS011;10573;50.936;6.978;2023-10-19T13:01:45;6.97;;;1.97;;
20824;SDS011;10573;50.936;6.978;2023-10-19T13:04:14;8.07;;;2.03;;
20824;SDS011;10573;50.936;6.978;2023-10-19T13:06:43;6.07;;;1.83;;
20824;SDS011;10573;50.936;6.978;2023-10-19T13:09:09;8.68;;;1.85;;
20824;SDS011;10573;50.936;6.978;2023-10-19T13:11:35;5.68;;;1.67;;
20824;SDS011;10573;50.936;6.978;2023-10-19T13:14:00;9.50;;;2.00;;
20824;SDS011;10573;50.936;6.978;2023-10-19T13:16:26;5.00;;;1.88;;
20824;SDS011;10573;50.936;6.978;2023-10-19T13:18:52;7.88;;;1.92;;
20824;SDS011;10573;50.936;6.978;2023-10-19T13:21:18;8.00;;;2.28;;
20824;SDS011;10573;50.936;6.978;2023-10-19T13:23:47;8.52;;;2.10;;
20824;SDS011;10573;50.936;6.978;2023-10-19T13:26:13;6.57;;;1.88;;
20824;SDS011;10573;50.936;6.978;2023-10-19T13:28:45;8.20;;;2.33;;
20824;SDS011;10573;50.936;6.978;2023-10-19T13:31:12;10.30;;;2.50;;
20824;SDS011;10573;50.936;6.978;2023-10-19T13:33:40;10.27;;;2.30;;
20824;SDS011;10573;50.936;6.978;2023-10-19T13:36:10;9.20;;;2.30;;
20824;SDS011;10573;50.936;6.978;2023-10-19T13:38:36;6.78;;;2.45;;
20824;SDS011;10573;50.936;6.978;2023-10-19T13:41:05;10.87;;;2.67;;
20824;SDS011;10573;50.936;6.978;2023-10-19T13:43:35;8.57;;;2.47;;
20824;SDS011;10573;50.936;6.978;2023-10-19T13:46:00;7.78;;;2.80;;
20824;SDS011;10573;50.936;6.978;2023-10-19T13:48:27;12.87;;;3.30;;
20824;SDS011;10573;50.936;6.978;2023-10-19T13:50:53;14.00;;;2.77;;
20824;SDS011;10573;50.936;6.978;2023-10-19T13:53:25;10.35;;;2.50;;
20824;SDS011;10573;50.936;6.978;2023-10-19T13:55:53;8.40;;;2.55;;
20824;SDS011;10573;50.936;6.978;2023-10-19T13:58:18;9.30;;;2.80;;
20824;SDS011;10573;50.936;6.978;2023-10-19T14:00:44;10.35;;;2.83;;
20824;SDS011;10573;50.936;6.978;2023-10-19T14:03:13;9.30;;;2.87;;
20824;SDS011;10573;50.936;6.978;2023-10-19T14:05:42;10.48;;;2.80;;
20824;SDS011;10573;50.936;6.978;2023-10-19T14:08:12;9.18;;;2.80;;
20824;SDS011;10573;50.936;6.978;2023-10-19T14:10:39;10.13;;;2.80;;
20824;SDS011;10573;50.936;6.978;2023-10-19T14:13:06;11.20;;;2.85;;
20824;SDS011;10573;50.936;6.978;2023-10-19T14:15:32;7.07;;;2.72;;
20824;SDS011;10573;50.936;6.978;2023-10-19T14:17:59;10.30;;;2.70;;
20824;SDS011;10573;50.936;6.978;2023-10-19T14:20:25;9.20;;;2.83;;
20824;SDS011;10573;50.936;6.978;2023-10-19T14:22:53;11.05;;;2.83;;
20824;SDS011;10573;50.936;6.978;2023-10-19T14:25:19;8.83;;;3.33;;
20824;SDS011;10573;50.936;6.978;2023-10-19T14:27:47;10.93;;;3.20;;
20824;SDS011;10573;50.936;6.978;2023-10-19T14:30:15;11.68;;;3.30;;
20824;SDS011;10573;50.936;6.978;2023-10-19T14:32:43;9.32;;;3.17;;
20824;SDS011;10573;50.936;6.978;2023-10-19T14:35:12;13.15;;;3.40;;
20824;SDS011;10573;50.936;6.978;2023-10-19T14:37:40;13.30;;;3.10;;
20824;SDS011;10573;50.936;6.978;2023-10-19T14:42:37;7.87;;;2.90;;
20824;SDS011;10573;50.936;6.978;2023-10-19T14:45:08;12.30;;;3.30;;
20824;SDS011;10573;50.936;6.978;2023-10-19T14:47:39;10.60;;;3.70;;
20824;SDS011;10573;50.936;6.978;2023-10-19T14:50:07;13.43;;;4.00;;
20824;SDS011;10573;50.936;6.978;2023-10-19T14:52:36;9.32;;;3.20;;
20824;SDS011;10573;50.936;6.978;2023-10-19T14:55:03;11.63;;;3.50;;
20824;SDS011;10573;50.936;6.978;2023-10-19T14:57:31;11.00;;;3.20;;
20824;SDS011;10573;50.936;6.978;2023-10-19T14:59:58;11.03;;;3.30;;